Time,TemperatureF,DewpointF,PressureIn,WindDirection,WindDirectionDegrees,WindSpeedMPH,WindSpeedGustMPH,Humidity,HourlyPrecipIn,Conditions,Clouds,dailyrainin,SolarRadiationWatts/m^2,SoftwareType,DateUTC
2012-05-27 00:24:00,38.0,34.0,-100.00,ENE,77,0.0,6.0,85,0.00,,,-99.99,1.000000,,2012-05-27 07:24:00,
2012-05-27 00:34:00,38.0,34.0,-100.00,ENE,77,0.0,6.0,85,0.00,,,-99.99,1.000000,,2012-05-27 07:34:00,
2012-05-27 00:44:00,38.0,34.0,-100.00,ENE,77,0.0,6.0,85,0.00,,,-99.99,1.000000,,2012-05-27 07:44:00,
2012-05-27 00:53:00,38.0,34.0,-100.00,ENE,77,0.0,6.0,85,0.00,,,-99.99,1.000000,,2012-05-27 07:53:00,
2012-05-27 01:24:00,37.0,34.0,-100.00,ESE,116,3.0,4.0,87,0.00,,,0.08,1.000000,,2012-05-27 08:24:00,
2012-05-27 01:35:00,37.0,34.0,-100.00,ESE,116,3.0,4.0,87,0.00,,,0.08,1.000000,,2012-05-27 08:35:00,
2012-05-27 01:44:00,37.0,34.0,-100.00,ESE,116,3.0,4.0,87,0.00,,,0.08,1.000000,,2012-05-27 08:44:00,
2012-05-27 01:53:00,37.0,34.0,-100.00,ESE,116,3.0,4.0,87,0.00,,,0.08,1.000000,,2012-05-27 08:53:00,
2012-05-27 02:24:00,37.0,34.0,-100.00,South,179,2.0,4.0,87,0.00,,,0.08,1.000000,,2012-05-27 09:24:00,
2012-05-27 02:34:00,37.0,34.0,-100.00,South,179,2.0,4.0,87,0.00,,,0.08,1.000000,,2012-05-27 09:34:00,
2012-05-27 02:44:00,37.0,34.0,-100.00,South,179,2.0,4.0,87,0.00,,,0.08,1.000000,,2012-05-27 09:44:00,
2012-05-27 02:53:00,37.0,34.0,-100.00,South,179,2.0,4.0,87,0.00,,,0.08,1.000000,,2012-05-27 09:53:00,
2012-05-27 03:24:00,38.0,35.0,-100.00,SSW,204,3.0,4.0,88,0.00,,,0.08,1.000000,,2012-05-27 10:24:00,
2012-05-27 03:34:00,38.0,35.0,-100.00,SSW,204,3.0,4.0,88,0.00,,,0.08,1.000000,,2012-05-27 10:34:00,
2012-05-27 03:44:00,38.0,35.0,-100.00,SSW,204,3.0,4.0,88,0.00,,,0.08,1.000000,,2012-05-27 10:44:00,
2012-05-27 03:54:00,38.0,35.0,-100.00,SSW,204,3.0,4.0,88,0.00,,,0.08,1.000000,,2012-05-27 10:54:00,
2012-05-27 04:24:00,35.0,32.0,-100.00,SE,128,2.0,4.0,89,0.00,,,0.08,1.000000,,2012-05-27 11:24:00,
2012-05-27 04:34:00,35.0,32.0,-100.00,SE,128,2.0,4.0,89,0.00,,,0.08,1.000000,,2012-05-27 11:34:00,
2012-05-27 04:44:00,35.0,32.0,-100.00,SE,128,2.0,4.0,89,0.00,,,0.08,1.000000,,2012-05-27 11:44:00,
2012-05-27 04:53:00,35.0,32.0,-100.00,SE,128,2.0,4.0,89,0.00,,,0.08,1.000000,,2012-05-27 11:53:00,
2012-05-27 05:24:00,34.0,32.0,-100.00,ESE,103,2.0,3.0,94,0.00,,,0.08,1.000000,,2012-05-27 12:24:00,
2012-05-27 05:34:00,34.0,32.0,-100.00,ESE,103,2.0,3.0,94,0.00,,,0.08,1.000000,,2012-05-27 12:34:00,
2012-05-27 05:44:00,34.0,32.0,-100.00,ESE,103,2.0,3.0,94,0.00,,,0.08,1.000000,,2012-05-27 12:44:00,
2012-05-27 05:53:00,34.0,32.0,-100.00,ESE,103,2.0,3.0,94,0.00,,,0.08,1.000000,,2012-05-27 12:53:00,
2012-05-27 06:26:00,30.0,29.0,-100.00,East,83,3.0,4.0,96,0.00,,,0.08,5.000000,,2012-05-27 13:26:00,
2012-05-27 06:34:00,30.0,29.0,-100.00,East,83,3.0,4.0,96,0.00,,,0.08,5.000000,,2012-05-27 13:34:00,
2012-05-27 06:44:00,30.0,29.0,-100.00,East,83,3.0,4.0,96,0.00,,,0.08,5.000000,,2012-05-27 13:44:00,
2012-05-27 06:53:00,30.0,29.0,-100.00,East,83,3.0,4.0,96,0.00,,,0.08,5.000000,,2012-05-27 13:53:00,
2012-05-27 07:24:00,34.0,32.0,-100.00,East,81,4.0,6.0,94,0.00,,,0.08,106.000000,,2012-05-27 14:24:00,
2012-05-27 07:35:00,34.0,32.0,-100.00,East,81,4.0,6.0,94,0.00,,,0.08,106.000000,,2012-05-27 14:35:00,
2012-05-27 07:44:00,34.0,32.0,-100.00,East,81,4.0,6.0,94,0.00,,,0.08,106.000000,,2012-05-27 14:44:00,
2012-05-27 07:53:00,34.0,32.0,-100.00,East,81,4.0,6.0,94,0.00,,,0.08,106.000000,,2012-05-27 14:53:00,
2012-05-27 08:24:00,42.0,37.0,-100.00,South,186,3.0,6.0,83,0.00,,,0.08,269.000000,,2012-05-27 15:24:00,
2012-05-27 08:35:00,42.0,37.0,-100.00,South,186,3.0,6.0,83,0.00,,,0.08,269.000000,,2012-05-27 15:35:00,
2012-05-27 08:44:00,42.0,37.0,-100.00,South,186,3.0,6.0,83,0.00,,,0.08,269.000000,,2012-05-27 15:44:00,
2012-05-27 08:53:00,42.0,37.0,-100.00,South,186,3.0,6.0,83,0.00,,,0.08,269.000000,,2012-05-27 15:53:00,
2012-05-27 09:24:00,47.0,40.0,-100.00,SSW,200,3.0,6.0,76,0.00,,,0.08,402.000000,,2012-05-27 16:24:00,
2012-05-27 09:35:00,47.0,40.0,-100.00,SSW,200,3.0,6.0,76,0.00,,,0.08,402.000000,,2012-05-27 16:35:00,
2012-05-27 09:44:00,47.0,40.0,-100.00,SSW,200,3.0,6.0,76,0.00,,,0.08,402.000000,,2012-05-27 16:44:00,
2012-05-27 09:54:00,47.0,40.0,-100.00,SSW,200,3.0,6.0,76,0.00,,,0.08,402.000000,,2012-05-27 16:54:00,
2012-05-27 10:24:00,50.0,37.0,-100.00,SSW,210,4.0,8.0,60,0.00,,,0.08,507.000000,,2012-05-27 17:24:00,
2012-05-27 10:35:00,50.0,37.0,-100.00,SSW,210,4.0,8.0,60,0.00,,,0.08,507.000000,,2012-05-27 17:35:00,
2012-05-27 10:45:00,50.0,37.0,-100.00,SSW,210,4.0,8.0,60,0.00,,,0.08,507.000000,,2012-05-27 17:45:00,
2012-05-27 10:53:00,50.0,37.0,-100.00,SSW,210,4.0,8.0,60,0.00,,,0.08,507.000000,,2012-05-27 17:53:00,
2012-05-27 11:24:00,53.0,34.0,-100.00,SW,227,4.0,10.0,49,0.00,,,0.08,593.000000,,2012-05-27 18:24:00,
2012-05-27 11:35:00,53.0,34.0,-100.00,SW,227,4.0,10.0,49,0.00,,,0.08,593.000000,,2012-05-27 18:35:00,
2012-05-27 11:44:00,53.0,34.0,-100.00,SW,227,4.0,10.0,49,0.00,,,0.08,593.000000,,2012-05-27 18:44:00,
2012-05-27 11:53:00,53.0,34.0,-100.00,SW,227,4.0,10.0,49,0.00,,,0.08,593.000000,,2012-05-27 18:53:00,
2012-05-27 12:24:00,55.0,31.0,-100.00,West,267,6.0,12.0,40,0.00,,,0.08,835.000000,,2012-05-27 19:24:00,
2012-05-27 12:35:00,55.0,31.0,-100.00,West,267,6.0,12.0,40,0.00,,,0.08,835.000000,,2012-05-27 19:35:00,
2012-05-27 12:44:00,55.0,31.0,-100.00,West,267,6.0,12.0,40,0.00,,,0.08,835.000000,,2012-05-27 19:44:00,
2012-05-27 12:54:00,55.0,31.0,-100.00,West,267,6.0,12.0,40,0.00,,,0.08,835.000000,,2012-05-27 19:54:00,
2012-05-27 13:24:00,58.0,33.0,-100.00,West,268,7.0,16.0,39,0.00,,,0.08,1050.000000,,2012-05-27 20:24:00,
2012-05-27 13:35:00,58.0,33.0,-100.00,West,268,7.0,16.0,39,0.00,,,0.08,1050.000000,,2012-05-27 20:35:00,
2012-05-27 13:44:00,58.0,33.0,-100.00,West,268,7.0,16.0,39,0.00,,,0.08,1050.000000,,2012-05-27 20:44:00,
2012-05-27 13:53:00,58.0,33.0,-100.00,West,268,7.0,16.0,39,0.00,,,0.08,1050.000000,,2012-05-27 20:53:00,
2012-05-27 14:24:00,60.0,32.0,-100.00,SW,218,6.0,14.0,34,0.00,,,0.07,1035.000000,,2012-05-27 21:24:00,
2012-05-27 14:34:00,60.0,32.0,-100.00,SW,218,6.0,14.0,34,0.00,,,0.07,1035.000000,,2012-05-27 21:34:00,
2012-05-27 14:44:00,60.0,32.0,-100.00,SW,218,6.0,14.0,34,0.00,,,0.07,1035.000000,,2012-05-27 21:44:00,
2012-05-27 14:53:00,60.0,32.0,-100.00,SW,218,6.0,14.0,34,0.00,,,0.07,1035.000000,,2012-05-27 21:53:00,
2012-05-27 15:35:00,61.0,32.0,-100.00,SW,230,7.0,15.0,34,0.00,,,0.05,1021.000000,,2012-05-27 22:35:00,
2012-05-27 15:44:00,61.0,32.0,-100.00,SW,230,7.0,15.0,34,0.00,,,0.05,1021.000000,,2012-05-27 22:44:00,
2012-05-27 15:54:00,61.0,32.0,-100.00,SW,230,7.0,15.0,34,0.00,,,0.05,1021.000000,,2012-05-27 22:54:00,
2012-05-27 16:24:00,57.0,34.0,-100.00,WSW,251,8.0,15.0,42,0.00,,,-99.99,527.000000,,2012-05-27 23:24:00,
2012-05-27 16:35:00,57.0,34.0,-100.00,WSW,251,8.0,15.0,42,0.00,,,-99.99,527.000000,,2012-05-27 23:35:00,
2012-05-27 16:45:00,57.0,34.0,-100.00,WSW,251,8.0,15.0,42,0.00,,,-99.99,527.000000,,2012-05-27 23:45:00,
2012-05-27 16:53:00,57.0,34.0,-100.00,WSW,251,8.0,15.0,42,0.00,,,-99.99,527.000000,,2012-05-27 23:53:00,
2012-05-27 17:24:00,61.0,34.0,-100.00,West,271,7.0,13.0,36,0.00,,,0.00,437.000000,,2012-05-28 00:24:00,
2012-05-27 17:34:00,61.0,34.0,-100.00,West,271,7.0,13.0,36,0.00,,,0.00,437.000000,,2012-05-28 00:34:00,
2012-05-27 17:44:00,61.0,34.0,-100.00,West,271,7.0,13.0,36,0.00,,,0.00,437.000000,,2012-05-28 00:44:00,
2012-05-27 17:53:00,61.0,34.0,-100.00,West,271,7.0,13.0,36,0.00,,,0.00,437.000000,,2012-05-28 00:53:00,
2012-05-27 18:24:00,61.0,32.0,-100.00,West,263,7.0,12.0,34,0.00,,,0.00,522.000000,,2012-05-28 01:24:00,
2012-05-27 18:34:00,61.0,32.0,-100.00,West,263,7.0,12.0,34,0.00,,,0.00,522.000000,,2012-05-28 01:34:00,
2012-05-27 18:44:00,61.0,32.0,-100.00,West,263,7.0,12.0,34,0.00,,,0.00,522.000000,,2012-05-28 01:44:00,
2012-05-27 18:53:00,61.0,32.0,-100.00,West,263,7.0,12.0,34,0.00,,,0.00,522.000000,,2012-05-28 01:53:00,
2012-05-27 19:24:00,55.0,35.0,-100.00,South,177,2.0,12.0,46,0.00,,,-99.99,209.000000,,2012-05-28 02:24:00,
2012-05-27 19:35:00,55.0,35.0,-100.00,South,177,2.0,12.0,46,0.00,,,-99.99,209.000000,,2012-05-28 02:35:00,
2012-05-27 19:44:00,55.0,35.0,-100.00,South,177,2.0,12.0,46,0.00,,,-99.99,209.000000,,2012-05-28 02:44:00,
2012-05-27 19:53:00,55.0,35.0,-100.00,South,177,2.0,12.0,46,0.00,,,-99.99,209.000000,,2012-05-28 02:53:00,
2012-05-27 20:24:00,57.0,35.0,-100.00,West,271,5.0,7.0,43,0.00,,,0.00,184.000000,,2012-05-28 03:24:00,
2012-05-27 20:34:00,57.0,35.0,-100.00,West,271,5.0,7.0,43,0.00,,,0.00,184.000000,,2012-05-28 03:34:00,
2012-05-27 20:44:00,57.0,35.0,-100.00,West,271,5.0,7.0,43,0.00,,,0.00,184.000000,,2012-05-28 03:44:00,
2012-05-27 20:53:00,57.0,35.0,-100.00,West,271,5.0,7.0,43,0.00,,,0.00,184.000000,,2012-05-28 03:53:00,
2012-05-27 21:25:00,50.0,35.0,-100.00,WNW,302,6.0,8.0,56,0.00,,,0.00,18.000000,,2012-05-28 04:25:00,
2012-05-27 21:34:00,50.0,35.0,-100.00,WNW,302,6.0,8.0,56,0.00,,,0.00,18.000000,,2012-05-28 04:34:00,
2012-05-27 21:44:00,50.0,35.0,-100.00,WNW,302,6.0,8.0,56,0.00,,,0.00,18.000000,,2012-05-28 04:44:00,
2012-05-27 21:53:00,50.0,35.0,-100.00,WNW,302,6.0,8.0,56,0.00,,,0.00,18.000000,,2012-05-28 04:53:00,
2012-05-27 22:24:00,46.0,35.0,-100.00,ESE,104,2.0,8.0,65,0.00,,,0.00,1.000000,,2012-05-28 05:24:00,
2012-05-27 22:34:00,46.0,35.0,-100.00,ESE,104,2.0,8.0,65,0.00,,,0.00,1.000000,,2012-05-28 05:34:00,
2012-05-27 22:44:00,46.0,35.0,-100.00,ESE,104,2.0,8.0,65,0.00,,,0.00,1.000000,,2012-05-28 05:44:00,
2012-05-27 22:53:00,46.0,35.0,-100.00,ESE,104,2.0,8.0,65,0.00,,,0.00,1.000000,,2012-05-28 05:53:00,
2012-05-27 23:24:00,48.0,36.0,-100.00,WSW,257,4.0,6.0,64,0.00,,,0.00,1.000000,,2012-05-28 06:24:00,
2012-05-27 23:34:00,48.0,36.0,-100.00,WSW,257,4.0,6.0,64,0.00,,,0.00,1.000000,,2012-05-28 06:34:00,
2012-05-27 23:44:00,48.0,36.0,-100.00,WSW,257,4.0,6.0,64,0.00,,,0.00,1.000000,,2012-05-28 06:44:00,
2012-05-27 23:53:00,48.0,36.0,-100.00,WSW,257,4.0,6.0,64,0.00,,,0.00,1.000000,,2012-05-28 06:53:00,